sensor_id;sensor_type;location;lat;lon;timestamp;P1;durP1;ratioP1;P2;durP2;ratioP2
38843;SDS011;24596;48.080;8.362;2023-02-12T00:00:19;32.78;;;16.63;;
38843;SDS011;24596;48.080;8.362;2023-02-12T00:02:45;30.50;;;16.40;;
38843;SDS011;24596;48.080;8.362;2023-02-12T00:05:10;40.35;;;19.40;;
38843;SDS011;24596;48.080;8.362;2023-02-12T00:07:38;34.08;;;17.45;;
38843;SDS011;24596;48.080;8.362;2023-02-12T00:10:03;34.90;;;16.85;;
38843;SDS011;24596;48.080;8.362;2023-02-12T00:12:29;32.83;;;16.33;;
38843;SDS011;24596;48.080;8.362;2023-02-12T00:14:54;33.38;;;17.60;;
38843;SDS011;24596;48.080;8.362;2023-02-12T00:17:19;35.55;;;17.17;;
38843;SDS011;24596;48.080;8.362;2023-02-12T00:19:45;35.47;;;18.10;;
38843;SDS011;24596;48.080;8.362;2023-02-12T00:22:11;33.72;;;16.77;;
38843;SDS011;24596;48.080;8.362;2023-02-12T00:24:36;33.78;;;16.25;;
38843;SDS011;24596;48.080;8.362;2023-02-12T00:27:01;28.42;;;14.90;;
38843;SDS011;24596;48.080;8.362;2023-02-12T00:29:26;29.80;;;15.90;;
38843;SDS011;24596;48.080;8.362;2023-02-12T00:31:51;35.47;;;17.55;;
38843;SDS011;24596;48.080;8.362;2023-02-12T00:34:17;37.08;;;17.77;;
38843;SDS011;24596;48.080;8.362;2023-02-12T00:36:42;34.65;;;17.15;;
38843;SDS011;24596;48.080;8.362;2023-02-12T00:39:08;35.10;;;16.10;;
38843;SDS011;24596;48.080;8.362;2023-02-12T00:41:34;38.65;;;18.15;;
38843;SDS011;24596;48.080;8.362;2023-02-12T00:43:59;33.63;;;17.60;;
38843;SDS011;24596;48.080;8.362;2023-02-12T00:46:27;39.03;;;18.23;;
38843;SDS011;24596;48.080;8.362;2023-02-12T00:48:52;39.05;;;18.38;;
38843;SDS011;24596;48.080;8.362;2023-02-12T00:51:17;38.38;;;18.75;;
38843;SDS011;24596;48.080;8.362;2023-02-12T00:53:43;37.15;;;17.13;;
38843;SDS011;24596;48.080;8.362;2023-02-12T00:56:08;38.63;;;17.40;;
38843;SDS011;24596;48.080;8.362;2023-02-12T00:58:33;34.17;;;17.42;;
38843;SDS011;24596;48.080;8.362;2023-02-12T01:00:58;43.90;;;19.42;;
38843;SDS011;24596;48.080;8.362;2023-02-12T01:03:24;40.78;;;19.83;;
38843;SDS011;24596;48.080;8.362;2023-02-12T01:05:49;42.15;;;20.88;;
38843;SDS011;24596;48.080;8.362;2023-02-12T01:08:14;41.92;;;20.15;;
38843;SDS011;24596;48.080;8.362;2023-02-12T01:10:40;40.60;;;19.45;;
38843;SDS011;24596;48.080;8.362;2023-02-12T01:13:06;38.95;;;17.30;;
38843;SDS011;24596;48.080;8.362;2023-02-12T01:15:31;35.72;;;18.42;;
38843;SDS011;24596;48.080;8.362;2023-02-12T01:17:56;33.28;;;17.38;;
38843;SDS011;24596;48.080;8.362;2023-02-12T01:20:22;39.40;;;19.20;;
38843;SDS011;24596;48.080;8.362;2023-02-12T01:22:48;36.65;;;17.52;;
38843;SDS011;24596;48.080;8.362;2023-02-12T01:25:14;39.83;;;19.00;;
38843;SDS011;24596;48.080;8.362;2023-02-12T01:27:39;36.30;;;18.55;;
38843;SDS011;24596;48.080;8.362;2023-02-12T01:30:06;39.80;;;19.00;;
38843;SDS011;24596;48.080;8.362;2023-02-12T01:32:31;45.63;;;20.55;;
38843;SDS011;24596;48.080;8.362;2023-02-12T01:34:56;42.17;;;20.27;;
38843;SDS011;24596;48.080;8.362;2023-02-12T01:37:21;45.40;;;20.80;;
38843;SDS011;24596;48.080;8.362;2023-02-12T01:39:47;38.55;;;19.00;;
38843;SDS011;24596;48.080;8.362;2023-02-12T01:42:12;37.92;;;19.15;;
38843;SDS011;24596;48.080;8.362;2023-02-12T01:44:42;39.97;;;17.90;;
38843;SDS011;24596;48.080;8.362;2023-02-12T01:47:11;40.75;;;18.23;;
38843;SDS011;24596;48.080;8.362;2023-02-12T01:49:39;39.65;;;19.15;;
38843;SDS011;24596;48.080;8.362;2023-02-12T01:52:09;34.90;;;17.63;;
38843;SDS011;24596;48.080;8.362;2023-02-12T01:54:39;39.53;;;18.13;;
38843;SDS011;24596;48.080;8.362;2023-02-12T01:57:05;40.97;;;18.17;;
38843;SDS011;24596;48.080;8.362;2023-02-12T01:59:32;38.53;;;18.55;;
38843;SDS011;24596;48.080;8.362;2023-02-12T02:01:58;38.72;;;20.13;;
38843;SDS011;24596;48.080;8.362;2023-02-12T02:04:25;37.88;;;18.35;;
38843;SDS011;24596;48.080;8.362;2023-02-12T02:06:52;38.88;;;19.60;;
38843;SDS011;24596;48.080;8.362;2023-02-12T02:09:22;36.22;;;17.70;;
38843;SDS011;24596;48.080;8.362;2023-02-12T02:11:48;38.25;;;18.48;;
38843;SDS011;24596;48.080;8.362;2023-02-12T02:14:32;37.28;;;17.60;;
38843;SDS011;24596;48.080;8.362;2023-02-12T02:19:54;37.80;;;18.83;;
38843;SDS011;24596;48.080;8.362;2023-02-12T02:24:52;40.80;;;18.70;;
38843;SDS011;24596;48.080;8.362;2023-02-12T02:30:26;36.53;;;19.02;;
38843;SDS011;24596;48.080;8.362;2023-02-12T02:35:19;36.47;;;17.65;;
38843;SDS011;24596;48.080;8.362;2023-02-12T02:40:21;38.75;;;18.25;;
38843;SDS011;24596;48.080;8.362;2023-02-12T02:42:55;42.55;;;17.77;;
38843;SDS011;24596;48.080;8.362;2023-02-12T02:45:27;35.53;;;18.58;;
38843;SDS011;24596;48.080;8.362;2023-02-12T02:47:59;39.67;;;18.65;;
38843;SDS011;24596;48.080;8.362;2023-02-12T02:50:26;39.83;;;18.63;;
38843;SDS011;24596;48.080;8.362;2023-02-12T02:52:58;42.78;;;18.50;;
38843;SDS011;24596;48.080;8.362;2023-02-12T02:55:24;37.45;;;18.10;;
38843;SDS011;24596;48.080;8.362;2023-02-12T02:57:56;31.80;;;16.98;;
38843;SDS011;24596;48.080;8.362;2023-02-12T03:00:34;34.30;;;16.95;;
38843;SDS011;24596;48.080;8.362;2023-02-12T03:03:04;35.15;;;18.45;;
38843;SDS011;24596;48.080;8.362;2023-02-12T03:05:39;36.25;;;18.40;;
38843;SDS011;24596;48.080;8.362;2023-02-12T03:10:48;43.50;;;18.30;;
38843;SDS011;24596;48.080;8.362;2023-02-12T03:13:58;31.63;;;15.95;;
38843;SDS011;24596;48.080;8.362;2023-02-12T03:16:08;30.63;;;14.73;;
38843;SDS011;24596;48.080;8.362;2023-02-12T03:18:39;34.05;;;15.27;;
38843;SDS011;24596;48.080;8.362;2023-02-12T03:21:08;30.85;;;13.95;;
38843;SDS011;24596;48.080;8.362;2023-02-12T03:23:36;29.90;;;14.75;;
38843;SDS011;24596;48.080;8.362;2023-02-12T03:26:10;29.20;;;14.07;;
38843;SDS011;24596;48.080;8.362;2023-02-12T03:28:37;32.85;;;14.32;;
38843;SDS011;24596;48.080;8.362;2023-02-12T03:35:57;25.35;;;12.77;;
38843;SDS011;24596;48.080;8.362;2023-02-12T03:38:30;23.33;;;10.38;;
38843;SDS011;24596;48.080;8.362;2023-02-12T03:43:24;24.85;;;9.55;;
38843;SDS011;24596;48.080;8.362;2023-02-12T03:48:36;20.77;;;9.85;;
38843;SDS011;24596;48.080;8.362;2023-02-12T03:53:36;29.95;;;14.13;;
38843;SDS011;24596;48.080;8.362;2023-02-12T03:56:03;29.67;;;11.95;;
38843;SDS011;24596;48.080;8.362;2023-02-12T03:58:29;46.17;;;11.65;;
38843;SDS011;24596;48.080;8.362;2023-02-12T04:00:56;39.13;;;9.68;;
38843;SDS011;24596;48.080;8.362;2023-02-12T04:03:23;43.88;;;14.85;;
38843;SDS011;24596;48.080;8.362;2023-02-12T04:05:48;25.10;;;9.23;;
38843;SDS011;24596;48.080;8.362;2023-02-12T04:08:13;20.55;;;8.15;;
38843;SDS011;24596;48.080;8.362;2023-02-12T04:18:19;23.48;;;11.00;;
38843;SDS011;24596;48.080;8.362;2023-02-12T04:33:56;18.63;;;7.95;;
38843;SDS011;24596;48.080;8.362;2023-02-12T04:36:25;20.45;;;8.82;;
38843;SDS011;24596;48.080;8.362;2023-02-12T04:38:56;24.45;;;12.10;;
38843;SDS011;24596;48.080;8.362;2023-02-12T04:41:23;25.30;;;11.48;;
38843;SDS011;24596;48.080;8.362;2023-02-12T04:43:49;16.42;;;7.35;;
38843;SDS011;24596;48.080;8.362;2023-02-12T04:46:14;91.10;;;10.68;;
38843;SDS011;24596;48.080;8.362;2023-02-12T04:49:01;78.15;;;8.38;;
38843;SDS011;24596;48.080;8.362;2023-02-12T04:51:25;20.10;;;9.48;;
38843;SDS011;24596;48.080;8.362;2023-02-12T04:53:50;22.40;;;10.00;;
38843;SDS011;24596;48.080;8.362;2023-02-12T04:56:16;18.38;;;7.93;;
38843;SDS011;24596;48.080;8.362;2023-02-12T04:58:41;17.73;;;8.65;;
38843;SDS011;24596;48.080;8.362;2023-02-12T05:01:07;12.77;;;5.75;;
38843;SDS011;24596;48.080;8.362;2023-02-12T05:03:34;15.60;;;6.88;;
38843;SDS011;24596;48.080;8.362;2023-02-12T05:06:05;27.73;;;8.20;;
38843;SDS011;24596;48.080;8.362;2023-02-12T05:08:31;26.40;;;8.63;;
38843;SDS011;24596;48.080;8.362;2023-02-12T05:10:56;15.48;;;7.28;;
38843;SDS011;24596;48.080;8.362;2023-02-12T05:13:21;53.15;;;11.00;;
38843;SDS011;24596;48.080;8.362;2023-02-12T05:15:47;22.35;;;11.38;;
38843;SDS011;24596;48.080;8.362;2023-02-12T05:18:12;56.13;;;10.13;;
38843;SDS011;24596;48.080;8.362;2023-02-12T05:20:37;29.63;;;13.25;;
38843;SDS011;24596;48.080;8.362;2023-02-12T05:23:02;45.72;;;10.40;;
38843;SDS011;24596;48.080;8.362;2023-02-12T05:25:27;20.05;;;8.60;;
38843;SDS011;24596;48.080;8.362;2023-02-12T05:27:53;51.35;;;9.82;;
38843;SDS011;24596;48.080;8.362;2023-02-12T05:30:20;45.85;;;7.55;;
38843;SDS011;24596;48.080;8.362;2023-02-12T05:32:45;60.50;;;7.85;;
38843;SDS011;24596;48.080;8.362;2023-02-12T05:35:11;14.57;;;6.15;;
38843;SDS011;24596;48.080;8.362;2023-02-12T05:37:36;14.38;;;6.47;;
38843;SDS011;24596;48.080;8.362;2023-02-12T05:40:03;15.52;;;6.30;;
38843;SDS011;24596;48.080;8.362;2023-02-12T05:42:28;16.92;;;7.93;;
38843;SDS011;24596;48.080;8.362;2023-02-12T05:44:53;156.65;;;11.23;;
38843;SDS011;24596;48.080;8.362;2023-02-12T05:47:18;174.85;;;10.38;;
38843;SDS011;24596;48.080;8.362;2023-02-12T05:49:44;27.08;;;7.90;;
38843;SDS011;24596;48.080;8.362;2023-02-12T05:52:09;16.35;;;7.32;;
38843;SDS011;24596;48.080;8.362;2023-02-12T05:54:34;18.73;;;6.70;;
38843;SDS011;24596;48.080;8.362;2023-02-12T05:56:59;30.27;;;5.40;;
38843;SDS011;24596;48.080;8.362;2023-02-12T05:59:25;10.25;;;4.80;;
38843;SDS011;24596;48.080;8.362;2023-02-12T06:01:50;12.60;;;4.32;;
38843;SDS011;24596;48.080;8.362;2023-02-12T06:04:17;9.85;;;4.43;;
38843;SDS011;24596;48.080;8.362;2023-02-12T06:06:42;36.92;;;8.50;;
38843;SDS011;24596;48.080;8.362;2023-02-12T06:09:08;14.82;;;4.50;;
38843;SDS011;24596;48.080;8.362;2023-02-12T06:11:34;14.90;;;4.93;;
38843;SDS011;24596;48.080;8.362;2023-02-12T06:14:06;15.70;;;5.80;;
38843;SDS011;24596;48.080;8.362;2023-02-12T06:18:57;19.33;;;8.48;;
38843;SDS011;24596;48.080;8.362;2023-02-12T06:21:22;17.75;;;6.75;;
38843;SDS011;24596;48.080;8.362;2023-02-12T06:23:48;14.80;;;5.97;;
38843;SDS011;24596;48.080;8.362;2023-02-12T06:26:14;13.82;;;5.78;;
38843;SDS011;24596;48.080;8.362;2023-02-12T06:28:39;90.43;;;11.05;;
38843;SDS011;24596;48.080;8.362;2023-02-12T06:31:04;18.73;;;8.20;;
38843;SDS011;24596;48.080;8.362;2023-02-12T06:33:30;15.43;;;5.50;;
38843;SDS011;24596;48.080;8.362;2023-02-12T06:35:55;23.65;;;5.18;;
38843;SDS011;24596;48.080;8.362;2023-02-12T06:38:20;15.50;;;5.78;;
38843;SDS011;24596;48.080;8.362;2023-02-12T06:40:45;17.90;;;4.88;;
38843;SDS011;24596;48.080;8.362;2023-02-12T06:43:11;12.00;;;4.20;;
38843;SDS011;24596;48.080;8.362;2023-02-12T06:45:36;24.35;;;3.95;;
38843;SDS011;24596;48.080;8.362;2023-02-12T06:48:01;26.23;;;4.32;;
38843;SDS011;24596;48.080;8.362;2023-02-12T06:50:28;20.58;;;4.32;;
38843;SDS011;24596;48.080;8.362;2023-02-12T06:52:54;11.85;;;4.88;;
38843;SDS011;24596;48.080;8.362;2023-02-12T06:55:19;26.00;;;5.28;;
38843;SDS011;24596;48.080;8.362;2023-02-12T06:57:44;30.17;;;5.82;;
38843;SDS011;24596;48.080;8.362;2023-02-12T07:00:10;40.60;;;5.35;;
38843;SDS011;24596;48.080;8.362;2023-02-12T07:02:35;28.65;;;7.00;;
38843;SDS011;24596;48.080;8.362;2023-02-12T07:05:00;27.25;;;6.80;;
38843;SDS011;24596;48.080;8.362;2023-02-12T07:07:26;67.20;;;7.38;;
38843;SDS011;24596;48.080;8.362;2023-02-12T07:09:51;49.47;;;6.32;;
38843;SDS011;24596;48.080;8.362;2023-02-12T07:12:16;59.90;;;6.25;;
38843;SDS011;24596;48.080;8.362;2023-02-12T07:14:41;53.10;;;5.80;;
38843;SDS011;24596;48.080;8.362;2023-02-12T07:17:06;92.32;;;7.60;;
38843;SDS011;24596;48.080;8.362;2023-02-12T07:19:33;91.57;;;7.50;;
38843;SDS011;24596;48.080;8.362;2023-02-12T07:21:58;47.17;;;6.03;;
38843;SDS011;24596;48.080;8.362;2023-02-12T07:24:24;64.57;;;5.97;;
38843;SDS011;24596;48.080;8.362;2023-02-12T07:26:49;11.25;;;4.47;;
38843;SDS011;24596;48.080;8.362;2023-02-12T07:29:14;43.78;;;6.05;;
38843;SDS011;24596;48.080;8.362;2023-02-12T07:31:39;55.60;;;6.50;;
38843;SDS011;24596;48.080;8.362;2023-02-12T07:34:05;26.05;;;6.40;;
38843;SDS011;24596;48.080;8.362;2023-02-12T07:36:31;250.55;;;15.45;;
38843;SDS011;24596;48.080;8.362;2023-02-12T07:38:57;165.75;;;10.45;;
38843;SDS011;24596;48.080;8.362;2023-02-12T07:41:23;83.75;;;10.27;;
38843;SDS011;24596;48.080;8.362;2023-02-12T07:43:52;145.45;;;10.90;;
38843;SDS011;24596;48.080;8.362;2023-02-12T07:46:19;93.80;;;8.57;;
38843;SDS011;24596;48.080;8.362;2023-02-12T07:48:45;64.25;;;9.90;;
38843;SDS011;24596;48.080;8.362;2023-02-12T07:51:11;122.50;;;10.90;;
38843;SDS011;24596;48.080;8.362;2023-02-12T07:53:37;83.82;;;9.27;;
38843;SDS011;24596;48.080;8.362;2023-02-12T07:56:04;147.45;;;15.70;;
38843;SDS011;24596;48.080;8.362;2023-02-12T07:58:29;136.98;;;8.25;;
38843;SDS011;24596;48.080;8.362;2023-02-12T08:00:54;54.83;;;7.03;;
38843;SDS011;24596;48.080;8.362;2023-02-12T08:03:19;48.58;;;6.78;;
38843;SDS011;24596;48.080;8.362;2023-02-12T08:05:44;29.70;;;6.18;;
38843;SDS011;24596;48.080;8.362;2023-02-12T08:08:09;61.00;;;7.97;;
38843;SDS011;24596;48.080;8.362;2023-02-12T08:10:35;128.73;;;10.57;;
38843;SDS011;24596;48.080;8.362;2023-02-12T08:13:00;197.13;;;14.75;;
38843;SDS011;24596;48.080;8.362;2023-02-12T08:15:25;137.90;;;12.20;;
38843;SDS011;24596;48.080;8.362;2023-02-12T08:17:50;110.55;;;9.43;;
38843;SDS011;24596;48.080;8.362;2023-02-12T08:20:15;152.73;;;11.52;;
38843;SDS011;24596;48.080;8.362;2023-02-12T08:22:41;96.95;;;8.85;;
38843;SDS011;24596;48.080;8.362;2023-02-12T08:25:06;157.98;;;12.48;;
38843;SDS011;24596;48.080;8.362;2023-02-12T08:27:31;196.52;;;14.57;;
38843;SDS011;24596;48.080;8.362;2023-02-12T08:29:57;92.13;;;11.00;;
38843;SDS011;24596;48.080;8.362;2023-02-12T08:32:22;223.50;;;13.48;;
38843;SDS011;24596;48.080;8.362;2023-02-12T08:34:47;22.48;;;7.32;;
38843;SDS011;24596;48.080;8.362;2023-02-12T08:37:12;116.85;;;13.95;;
38843;SDS011;24596;48.080;8.362;2023-02-12T08:39:37;154.23;;;11.93;;
38843;SDS011;24596;48.080;8.362;2023-02-12T08:42:03;207.90;;;12.57;;
38843;SDS011;24596;48.080;8.362;2023-02-12T08:44:28;172.20;;;11.63;;
38843;SDS011;24596;48.080;8.362;2023-02-12T08:46:53;100.07;;;8.90;;
38843;SDS011;24596;48.080;8.362;2023-02-12T08:49:20;151.70;;;11.68;;
38843;SDS011;24596;48.080;8.362;2023-02-12T08:51:47;245.52;;;19.48;;
38843;SDS011;24596;48.080;8.362;2023-02-12T08:54:14;74.45;;;15.10;;
38843;SDS011;24596;48.080;8.362;2023-02-12T08:56:40;32.60;;;10.30;;
38843;SDS011;24596;48.080;8.362;2023-02-12T08:59:06;80.85;;;12.88;;
38843;SDS011;24596;48.080;8.362;2023-02-12T09:01:33;87.40;;;10.63;;
38843;SDS011;24596;48.080;8.362;2023-02-12T09:03:58;81.57;;;8.00;;
38843;SDS011;24596;48.080;8.362;2023-02-12T09:06:24;46.58;;;6.63;;
38843;SDS011;24596;48.080;8.362;2023-02-12T09:08:50;59.15;;;7.13;;
38843;SDS011;24596;48.080;8.362;2023-02-12T09:11:18;173.20;;;12.90;;
38843;SDS011;24596;48.080;8.362;2023-02-12T09:13:44;15.18;;;6.28;;
38843;SDS011;24596;48.080;8.362;2023-02-12T09:16:09;115.22;;;9.82;;
38843;SDS011;24596;48.080;8.362;2023-02-12T09:18:35;54.05;;;7.15;;
38843;SDS011;24596;48.080;8.362;2023-02-12T09:21:11;66.45;;;7.32;;
38843;SDS011;24596;48.080;8.362;2023-02-12T09:23:37;102.82;;;8.15;;
38843;SDS011;24596;48.080;8.362;2023-02-12T09:26:03;145.20;;;10.80;;
38843;SDS011;24596;48.080;8.362;2023-02-12T09:28:28;41.17;;;11.20;;
38843;SDS011;24596;48.080;8.362;2023-02-12T09:30:53;17.55;;;7.38;;
38843;SDS011;24596;48.080;8.362;2023-02-12T09:33:19;16.38;;;6.78;;
38843;SDS011;24596;48.080;8.362;2023-02-12T09:35:44;12.98;;;5.80;;
38843;SDS011;24596;48.080;8.362;2023-02-12T09:38:09;28.58;;;7.22;;
38843;SDS011;24596;48.080;8.362;2023-02-12T09:45:54;46.20;;;7.13;;
38843;SDS011;24596;48.080;8.362;2023-02-12T09:50:56;12.57;;;5.18;;
38843;SDS011;24596;48.080;8.362;2023-02-12T09:53:24;17.40;;;5.35;;
38843;SDS011;24596;48.080;8.362;2023-02-12T09:55:50;38.20;;;6.05;;
38843;SDS011;24596;48.080;8.362;2023-02-12T09:58:22;18.27;;;6.40;;
38843;SDS011;24596;48.080;8.362;2023-02-12T10:00:52;23.10;;;6.35;;
38843;SDS011;24596;48.080;8.362;2023-02-12T10:03:17;18.17;;;5.82;;
38843;SDS011;24596;48.080;8.362;2023-02-12T10:05:50;10.65;;;5.40;;
38843;SDS011;24596;48.080;8.362;2023-02-12T10:11:12;13.40;;;4.53;;
38843;SDS011;24596;48.080;8.362;2023-02-12T10:23:56;11.50;;;5.50;;
38843;SDS011;24596;48.080;8.362;2023-02-12T10:26:30;17.58;;;11.00;;
38843;SDS011;24596;48.080;8.362;2023-02-12T10:28:57;14.75;;;8.48;;
38843;SDS011;24596;48.080;8.362;2023-02-12T10:33:50;12.02;;;5.43;;
38843;SDS011;24596;48.080;8.362;2023-02-12T10:38:51;12.27;;;5.25;;
38843;SDS011;24596;48.080;8.362;2023-02-12T10:41:17;11.95;;;5.88;;
38843;SDS011;24596;48.080;8.362;2023-02-12T10:43:43;11.15;;;5.47;;
38843;SDS011;24596;48.080;8.362;2023-02-12T10:46:12;14.85;;;5.65;;
38843;SDS011;24596;48.080;8.362;2023-02-12T10:48:38;11.38;;;5.65;;
38843;SDS011;24596;48.080;8.362;2023-02-12T10:53:37;11.25;;;5.55;;
38843;SDS011;24596;48.080;8.362;2023-02-12T10:58:32;10.10;;;5.05;;
38843;SDS011;24596;48.080;8.362;2023-02-12T11:00:58;9.57;;;4.82;;
38843;SDS011;24596;48.080;8.362;2023-02-12T11:03:30;10.63;;;5.32;;
38843;SDS011;24596;48.080;8.362;2023-02-12T11:06:10;10.18;;;5.30;;
38843;SDS011;24596;48.080;8.362;2023-02-12T11:08:36;10.20;;;4.97;;
38843;SDS011;24596;48.080;8.362;2023-02-12T11:14:04;10.88;;;5.60;;
38843;SDS011;24596;48.080;8.362;2023-02-12T11:18:59;10.05;;;4.97;;
38843;SDS011;24596;48.080;8.362;2023-02-12T11:21:25;9.77;;;5.00;;
38843;SDS011;24596;48.080;8.362;2023-02-12T11:23:50;9.82;;;5.03;;
38843;SDS011;24596;48.080;8.362;2023-02-12T11:29:00;9.45;;;4.57;;
38843;SDS011;24596;48.080;8.362;2023-02-12T11:31:29;9.38;;;4.47;;
38843;SDS011;24596;48.080;8.362;2023-02-12T11:36:33;8.57;;;4.47;;
38843;SDS011;24596;48.080;8.362;2023-02-12T11:38:59;8.93;;;4.47;;
38843;SDS011;24596;48.080;8.362;2023-02-12T11:41:32;9.25;;;4.65;;
38843;SDS011;24596;48.080;8.362;2023-02-12T11:44:00;8.07;;;4.30;;
38843;SDS011;24596;48.080;8.362;2023-02-12T11:46:26;10.93;;;5.53;;
38843;SDS011;24596;48.080;8.362;2023-02-12T11:48:52;9.38;;;4.57;;
38843;SDS011;24596;48.080;8.362;2023-02-12T11:51:26;9.93;;;4.82;;
38843;SDS011;24596;48.080;8.362;2023-02-12T11:53:53;10.15;;;4.72;;
38843;SDS011;24596;48.080;8.362;2023-02-12T11:56:19;10.05;;;4.78;;
38843;SDS011;24596;48.080;8.362;2023-02-12T11:58:46;8.52;;;4.43;;
38843;SDS011;24596;48.080;8.362;2023-02-12T12:03:44;8.85;;;4.60;;
38843;SDS011;24596;48.080;8.362;2023-02-12T12:08:43;7.95;;;4.35;;
38843;SDS011;24596;48.080;8.362;2023-02-12T12:14:04;11.00;;;6.03;;
38843;SDS011;24596;48.080;8.362;2023-02-12T12:19:57;11.98;;;6.93;;
38843;SDS011;24596;48.080;8.362;2023-02-12T12:22:43;9.15;;;4.95;;
38843;SDS011;24596;48.080;8.362;2023-02-12T12:31:09;9.45;;;5.45;;
38843;SDS011;24596;48.080;8.362;2023-02-12T12:33:17;13.07;;;7.22;;
38843;SDS011;24596;48.080;8.362;2023-02-12T12:35:52;19.75;;;12.52;;
38843;SDS011;24596;48.080;8.362;2023-02-12T12:38:32;12.23;;;7.57;;
38843;SDS011;24596;48.080;8.362;2023-02-12T12:41:23;12.68;;;7.32;;
38843;SDS011;24596;48.080;8.362;2023-02-12T12:54:21;16.02;;;9.73;;
38843;SDS011;24596;48.080;8.362;2023-02-12T13:05:00;15.27;;;8.85;;
38843;SDS011;24596;48.080;8.362;2023-02-12T13:09:58;19.77;;;10.77;;
38843;SDS011;24596;48.080;8.362;2023-02-12T13:12:38;15.90;;;9.45;;
38843;SDS011;24596;48.080;8.362;2023-02-12T13:20:21;20.83;;;11.82;;
38843;SDS011;24596;48.080;8.362;2023-02-12T13:22:50;17.88;;;11.23;;
38843;SDS011;24596;48.080;8.362;2023-02-12T13:27:45;17.50;;;10.80;;
38843;SDS011;24596;48.080;8.362;2023-02-12T13:35:07;17.50;;;10.70;;
38843;SDS011;24596;48.080;8.362;2023-02-12T13:37:42;19.70;;;11.65;;
38843;SDS011;24596;48.080;8.362;2023-02-12T13:40:13;21.15;;;12.13;;
38843;SDS011;24596;48.080;8.362;2023-02-12T13:48:04;20.52;;;12.25;;
38843;SDS011;24596;48.080;8.362;2023-02-12T13:50:50;26.55;;;12.35;;
38843;SDS011;24596;48.080;8.362;2023-02-12T14:03:25;22.20;;;12.80;;
38843;SDS011;24596;48.080;8.362;2023-02-12T14:08:36;21.73;;;12.07;;
38843;SDS011;24596;48.080;8.362;2023-02-12T14:11:02;17.85;;;11.48;;
38843;SDS011;24596;48.080;8.362;2023-02-12T14:13:28;21.05;;;11.02;;
38843;SDS011;24596;48.080;8.362;2023-02-12T14:15:58;19.45;;;11.27;;
38843;SDS011;24596;48.080;8.362;2023-02-12T14:18:41;19.45;;;10.68;;
38843;SDS011;24596;48.080;8.362;2023-02-12T14:23:32;16.20;;;9.32;;
38843;SDS011;24596;48.080;8.362;2023-02-12T14:28:42;20.60;;;11.18;;
38843;SDS011;24596;48.080;8.362;2023-02-12T14:33:41;18.10;;;10.80;;
38843;SDS011;24596;48.080;8.362;2023-02-12T14:41:26;15.80;;;9.57;;
38843;SDS011;24596;48.080;8.362;2023-02-12T14:46:46;15.15;;;9.23;;
38843;SDS011;24596;48.080;8.362;2023-02-12T14:54:24;14.07;;;8.68;;
38843;SDS011;24596;48.080;8.362;2023-02-12T14:56:51;16.55;;;9.07;;
38843;SDS011;24596;48.080;8.362;2023-02-12T14:59:18;15.05;;;9.05;;
38843;SDS011;24596;48.080;8.362;2023-02-12T15:01:45;23.52;;;15.57;;
38843;SDS011;24596;48.080;8.362;2023-02-12T15:04:16;15.93;;;9.55;;
38843;SDS011;24596;48.080;8.362;2023-02-12T15:06:48;15.13;;;9.07;;
38843;SDS011;24596;48.080;8.362;2023-02-12T15:09:25;15.23;;;9.53;;
38843;SDS011;24596;48.080;8.362;2023-02-12T15:11:59;14.02;;;8.65;;
38843;SDS011;24596;48.080;8.362;2023-02-12T15:14:33;12.80;;;7.63;;
38843;SDS011;24596;48.080;8.362;2023-02-12T15:19:45;18.50;;;10.43;;
38843;SDS011;24596;48.080;8.362;2023-02-12T15:24:43;16.48;;;9.98;;
38843;SDS011;24596;48.080;8.362;2023-02-12T15:27:10;12.70;;;7.53;;
38843;SDS011;24596;48.080;8.362;2023-02-12T15:29:44;12.43;;;7.40;;
38843;SDS011;24596;48.080;8.362;2023-02-12T15:32:18;13.65;;;7.82;;
38843;SDS011;24596;48.080;8.362;2023-02-12T15:34:47;12.45;;;8.35;;
38843;SDS011;24596;48.080;8.362;2023-02-12T15:37:16;12.05;;;7.25;;
38843;SDS011;24596;48.080;8.362;2023-02-12T15:39:43;13.20;;;7.43;;
38843;SDS011;24596;48.080;8.362;2023-02-12T15:42:30;13.98;;;8.57;;
38843;SDS011;24596;48.080;8.362;2023-02-12T15:47:31;18.15;;;9.80;;
38843;SDS011;24596;48.080;8.362;2023-02-12T15:49:58;13.30;;;8.90;;
38843;SDS011;24596;48.080;8.362;2023-02-12T15:52:35;11.95;;;7.30;;
38843;SDS011;24596;48.080;8.362;2023-02-12T15:55:05;15.27;;;8.68;;
38843;SDS011;24596;48.080;8.362;2023-02-12T15:57:39;13.60;;;8.10;;
38843;SDS011;24596;48.080;8.362;2023-02-12T16:00:08;12.27;;;6.93;;
38843;SDS011;24596;48.080;8.362;2023-02-12T16:02:34;13.85;;;7.68;;
38843;SDS011;24596;48.080;8.362;2023-02-12T16:04:59;14.10;;;7.20;;
38843;SDS011;24596;48.080;8.362;2023-02-12T16:07:27;12.65;;;7.53;;
38843;SDS011;24596;48.080;8.362;2023-02-12T16:09:53;15.02;;;9.90;;
38843;SDS011;24596;48.080;8.362;2023-02-12T16:12:21;13.65;;;8.52;;
38843;SDS011;24596;48.080;8.362;2023-02-12T16:14:48;11.10;;;7.13;;
38843;SDS011;24596;48.080;8.362;2023-02-12T16:19:52;12.95;;;7.57;;
38843;SDS011;24596;48.080;8.362;2023-02-12T16:22:17;12.98;;;8.23;;
38843;SDS011;24596;48.080;8.362;2023-02-12T16:24:48;15.07;;;8.50;;
38843;SDS011;24596;48.080;8.362;2023-02-12T16:29:43;42.70;;;27.05;;
38843;SDS011;24596;48.080;8.362;2023-02-12T16:32:24;24.27;;;14.65;;
38843;SDS011;24596;48.080;8.362;2023-02-12T16:34:56;16.13;;;8.85;;
38843;SDS011;24596;48.080;8.362;2023-02-12T16:42:25;16.58;;;9.98;;
38843;SDS011;24596;48.080;8.362;2023-02-12T16:44:53;16.75;;;10.00;;
38843;SDS011;24596;48.080;8.362;2023-02-12T16:47:19;17.23;;;9.55;;
38843;SDS011;24596;48.080;8.362;2023-02-12T16:49:55;16.35;;;9.68;;
38843;SDS011;24596;48.080;8.362;2023-02-12T16:52:30;16.00;;;9.15;;
38843;SDS011;24596;48.080;8.362;2023-02-12T16:54:57;16.20;;;9.70;;
38843;SDS011;24596;48.080;8.362;2023-02-12T16:57:23;16.80;;;10.25;;
38843;SDS011;24596;48.080;8.362;2023-02-12T16:59:48;19.20;;;11.70;;
38843;SDS011;24596;48.080;8.362;2023-02-12T17:02:13;21.55;;;11.23;;
38843;SDS011;24596;48.080;8.362;2023-02-12T17:04:39;18.50;;;10.93;;
38843;SDS011;24596;48.080;8.362;2023-02-12T17:07:11;17.48;;;10.10;;
38843;SDS011;24596;48.080;8.362;2023-02-12T17:09:40;17.73;;;9.85;;
38843;SDS011;24596;48.080;8.362;2023-02-12T17:12:05;17.67;;;9.60;;
38843;SDS011;24596;48.080;8.362;2023-02-12T17:14:31;17.85;;;9.18;;
38843;SDS011;24596;48.080;8.362;2023-02-12T17:16:56;19.67;;;11.45;;
38843;SDS011;24596;48.080;8.362;2023-02-12T17:19:21;18.45;;;11.38;;
38843;SDS011;24596;48.080;8.362;2023-02-12T17:21:47;20.20;;;10.73;;
38843;SDS011;24596;48.080;8.362;2023-02-12T17:24:29;19.30;;;10.98;;
38843;SDS011;24596;48.080;8.362;2023-02-12T17:26:55;18.20;;;10.73;;
38843;SDS011;24596;48.080;8.362;2023-02-12T17:29:21;18.55;;;9.88;;
38843;SDS011;24596;48.080;8.362;2023-02-12T17:31:46;19.20;;;10.65;;
38843;SDS011;24596;48.080;8.362;2023-02-12T17:34:12;19.80;;;10.30;;
38843;SDS011;24596;48.080;8.362;2023-02-12T17:36:37;17.55;;;10.02;;
38843;SDS011;24596;48.080;8.362;2023-02-12T17:39:03;19.15;;;11.55;;
38843;SDS011;24596;48.080;8.362;2023-02-12T17:41:29;22.15;;;12.55;;
38843;SDS011;24596;48.080;8.362;2023-02-12T17:43:54;19.90;;;10.80;;
38843;SDS011;24596;48.080;8.362;2023-02-12T17:46:20;17.83;;;9.75;;
38843;SDS011;24596;48.080;8.362;2023-02-12T17:48:46;19.90;;;10.82;;
38843;SDS011;24596;48.080;8.362;2023-02-12T17:51:11;21.92;;;11.02;;